Terminal Aerodrome Forecast
Issued by NWS

Home | Current Version | Previous Version | Text Only | Print | Product List | Glossary Off
Versions: 1 2 3 4 5 6 7 8 9 10 11 12 13 14 15 16 17

000
FTUS43 KMPX 290500
TAFRWF
TAF
KRWF 290540Z 2906/3006 14005KT 4SM -DZ BR OVC003
     FM291600 25005KT 6SM BR BKN007 OVC025
     FM291900 28005KT P6SM SCT025 BKN120=

USA.gov is the U.S. government's official web portal to all federal, state and local government web resources and services.